sensor_id;sensor_type;location;lat;lon;timestamp;temperature;humidity
19330;DHT22;9799;48.214;16.388;2023-02-28T00:03:21;2.60;99.90
19330;DHT22;9799;48.214;16.388;2023-02-28T00:06:42;2.70;99.90
19330;DHT22;9799;48.214;16.388;2023-02-28T00:10:04;2.80;99.90
19330;DHT22;9799;48.214;16.388;2023-02-28T00:13:27;2.70;99.90
19330;DHT22;9799;48.214;16.388;2023-02-28T00:16:48;2.60;99.90
19330;DHT22;9799;48.214;16.388;2023-02-28T00:20:12;2.70;99.90
19330;DHT22;9799;48.214;16.388;2023-02-28T00:23:34;2.60;99.90
19330;DHT22;9799;48.214;16.388;2023-02-28T00:26:55;2.50;99.90
19330;DHT22;9799;48.214;16.388;2023-02-28T00:30:17;2.60;99.90
19330;DHT22;9799;48.214;16.388;2023-02-28T00:33:39;2.60;99.90
19330;DHT22;9799;48.214;16.388;2023-02-28T00:37:01;2.60;99.90
19330;DHT22;9799;48.214;16.388;2023-02-28T00:40:22;2.60;99.90
19330;DHT22;9799;48.214;16.388;2023-02-28T00:43:43;2.60;99.90
19330;DHT22;9799;48.214;16.388;2023-02-28T00:47:05;2.40;99.90
19330;DHT22;9799;48.214;16.388;2023-02-28T00:50:26;2.30;99.90
19330;DHT22;9799;48.214;16.388;2023-02-28T00:53:48;2.50;99.90
19330;DHT22;9799;48.214;16.388;2023-02-28T00:57:10;2.70;99.90
19330;DHT22;9799;48.214;16.388;2023-02-28T01:00:31;2.70;99.90
19330;DHT22;9799;48.214;16.388;2023-02-28T01:03:55;2.70;99.90
19330;DHT22;9799;48.214;16.388;2023-02-28T01:07:16;2.80;99.90
19330;DHT22;9799;48.214;16.388;2023-02-28T01:10:39;2.70;99.90
19330;DHT22;9799;48.214;16.388;2023-02-28T01:14:00;2.80;99.90
19330;DHT22;9799;48.214;16.388;2023-02-28T01:17:22;2.70;99.90
19330;DHT22;9799;48.214;16.388;2023-02-28T01:20:43;2.70;99.90
19330;DHT22;9799;48.214;16.388;2023-02-28T01:24:06;2.50;99.90
19330;DHT22;9799;48.214;16.388;2023-02-28T01:27:29;2.40;99.90
19330;DHT22;9799;48.214;16.388;2023-02-28T01:30:50;2.20;99.90
19330;DHT22;9799;48.214;16.388;2023-02-28T01:34:12;2.30;99.90
19330;DHT22;9799;48.214;16.388;2023-02-28T01:37:33;2.40;99.90
19330;DHT22;9799;48.214;16.388;2023-02-28T01:40:54;2.40;99.90
19330;DHT22;9799;48.214;16.388;2023-02-28T01:48:15;2.50;99.90
19330;DHT22;9799;48.214;16.388;2023-02-28T01:51:41;2.40;99.90
19330;DHT22;9799;48.214;16.388;2023-02-28T01:55:07;2.40;99.90
19330;DHT22;9799;48.214;16.388;2023-02-28T01:58:29;2.50;99.90
19330;DHT22;9799;48.214;16.388;2023-02-28T02:01:50;2.50;99.90
19330;DHT22;9799;48.214;16.388;2023-02-28T02:05:16;2.50;99.90
19330;DHT22;9799;48.214;16.388;2023-02-28T02:08:38;2.50;99.90
19330;DHT22;9799;48.214;16.388;2023-02-28T02:12:02;2.50;99.90
19330;DHT22;9799;48.214;16.388;2023-02-28T02:15:31;2.40;99.90
19330;DHT22;9799;48.214;16.388;2023-02-28T02:18:59;2.30;99.90
19330;DHT22;9799;48.214;16.388;2023-02-28T02:22:51;2.30;99.90
19330;DHT22;9799;48.214;16.388;2023-02-28T02:26:44;2.20;99.90
19330;DHT22;9799;48.214;16.388;2023-02-28T02:30:33;2.40;99.90
19330;DHT22;9799;48.214;16.388;2023-02-28T02:34:34;2.40;99.90
19330;DHT22;9799;48.214;16.388;2023-02-28T02:38:04;2.10;99.90
19330;DHT22;9799;48.214;16.388;2023-02-28T02:41:33;1.80;99.90
19330;DHT22;9799;48.214;16.388;2023-02-28T02:44:59;1.80;99.90
19330;DHT22;9799;48.214;16.388;2023-02-28T02:48:26;1.90;99.90
19330;DHT22;9799;48.214;16.388;2023-02-28T02:51:52;2.20;99.90
19330;DHT22;9799;48.214;16.388;2023-02-28T02:55:15;2.30;99.90
19330;DHT22;9799;48.214;16.388;2023-02-28T02:58:41;2.30;99.90
19330;DHT22;9799;48.214;16.388;2023-02-28T03:02:05;2.40;99.90
19330;DHT22;9799;48.214;16.388;2023-02-28T03:05:32;2.40;99.90
19330;DHT22;9799;48.214;16.388;2023-02-28T03:08:56;2.00;99.90
19330;DHT22;9799;48.214;16.388;2023-02-28T03:12:17;2.00;99.90
19330;DHT22;9799;48.214;16.388;2023-02-28T03:15:48;2.10;99.90
19330;DHT22;9799;48.214;16.388;2023-02-28T03:19:45;2.30;99.90
19330;DHT22;9799;48.214;16.388;2023-02-28T03:23:14;2.30;99.90
19330;DHT22;9799;48.214;16.388;2023-02-28T03:26:42;2.00;99.90
19330;DHT22;9799;48.214;16.388;2023-02-28T03:30:10;2.10;99.90
19330;DHT22;9799;48.214;16.388;2023-02-28T03:33:38;2.20;99.90
19330;DHT22;9799;48.214;16.388;2023-02-28T03:37:03;2.00;99.90
19330;DHT22;9799;48.214;16.388;2023-02-28T03:40:28;1.90;99.90
19330;DHT22;9799;48.214;16.388;2023-02-28T03:43:55;1.80;99.90
19330;DHT22;9799;48.214;16.388;2023-02-28T03:47:21;1.80;99.90
19330;DHT22;9799;48.214;16.388;2023-02-28T03:50:45;1.70;99.90
19330;DHT22;9799;48.214;16.388;2023-02-28T03:54:12;1.70;99.90
19330;DHT22;9799;48.214;16.388;2023-02-28T03:57:41;1.70;99.90
19330;DHT22;9799;48.214;16.388;2023-02-28T04:01:08;1.80;99.90
19330;DHT22;9799;48.214;16.388;2023-02-28T04:04:30;2.00;99.90
19330;DHT22;9799;48.214;16.388;2023-02-28T04:07:52;2.10;99.90
19330;DHT22;9799;48.214;16.388;2023-02-28T04:11:20;2.30;99.90
19330;DHT22;9799;48.214;16.388;2023-02-28T04:14:42;2.00;99.90
19330;DHT22;9799;48.214;16.388;2023-02-28T04:18:04;1.80;99.90
19330;DHT22;9799;48.214;16.388;2023-02-28T04:21:26;1.80;99.90
19330;DHT22;9799;48.214;16.388;2023-02-28T04:24:47;1.80;99.90
19330;DHT22;9799;48.214;16.388;2023-02-28T04:28:09;1.90;99.90
19330;DHT22;9799;48.214;16.388;2023-02-28T04:31:31;1.90;99.90
19330;DHT22;9799;48.214;16.388;2023-02-28T04:34:53;2.10;99.90
19330;DHT22;9799;48.214;16.388;2023-02-28T04:38:15;2.00;99.90
19330;DHT22;9799;48.214;16.388;2023-02-28T04:41:36;1.80;99.90
19330;DHT22;9799;48.214;16.388;2023-02-28T04:44:57;1.90;99.90
19330;DHT22;9799;48.214;16.388;2023-02-28T04:48:18;1.80;99.90
19330;DHT22;9799;48.214;16.388;2023-02-28T04:51:41;1.70;99.90
19330;DHT22;9799;48.214;16.388;2023-02-28T04:55:03;1.70;99.90
19330;DHT22;9799;48.214;16.388;2023-02-28T04:58:25;1.70;99.90
19330;DHT22;9799;48.214;16.388;2023-02-28T05:01:47;1.80;99.90
19330;DHT22;9799;48.214;16.388;2023-02-28T05:05:09;1.70;99.90
19330;DHT22;9799;48.214;16.388;2023-02-28T05:08:31;1.60;99.90
19330;DHT22;9799;48.214;16.388;2023-02-28T05:11:52;1.50;99.90
19330;DHT22;9799;48.214;16.388;2023-02-28T05:15:14;1.50;99.90
19330;DHT22;9799;48.214;16.388;2023-02-28T05:18:36;1.50;99.90
19330;DHT22;9799;48.214;16.388;2023-02-28T05:21:57;1.50;99.90
19330;DHT22;9799;48.214;16.388;2023-02-28T05:25:21;1.50;99.90
19330;DHT22;9799;48.214;16.388;2023-02-28T05:28:42;1.50;99.90
19330;DHT22;9799;48.214;16.388;2023-02-28T05:32:04;1.50;99.90
19330;DHT22;9799;48.214;16.388;2023-02-28T05:35:25;1.50;99.90
19330;DHT22;9799;48.214;16.388;2023-02-28T05:38:47;1.40;99.90
19330;DHT22;9799;48.214;16.388;2023-02-28T05:42:10;1.40;99.90
19330;DHT22;9799;48.214;16.388;2023-02-28T05:45:31;1.40;99.90
19330;DHT22;9799;48.214;16.388;2023-02-28T05:48:52;1.40;99.90
19330;DHT22;9799;48.214;16.388;2023-02-28T05:52:15;1.30;99.90
19330;DHT22;9799;48.214;16.388;2023-02-28T05:55:36;1.20;99.90
19330;DHT22;9799;48.214;16.388;2023-02-28T05:58:59;1.20;99.90
19330;DHT22;9799;48.214;16.388;2023-02-28T06:02:20;1.20;99.90
19330;DHT22;9799;48.214;16.388;2023-02-28T06:05:41;1.30;99.90
19330;DHT22;9799;48.214;16.388;2023-02-28T06:09:03;1.40;99.90
19330;DHT22;9799;48.214;16.388;2023-02-28T06:12:24;1.40;99.90
19330;DHT22;9799;48.214;16.388;2023-02-28T06:15:47;1.70;99.90
19330;DHT22;9799;48.214;16.388;2023-02-28T06:19:09;1.70;99.90
19330;DHT22;9799;48.214;16.388;2023-02-28T06:22:31;1.50;99.90
19330;DHT22;9799;48.214;16.388;2023-02-28T06:25:52;1.50;99.90
19330;DHT22;9799;48.214;16.388;2023-02-28T06:29:17;1.60;99.90
19330;DHT22;9799;48.214;16.388;2023-02-28T06:32:39;1.60;99.90
19330;DHT22;9799;48.214;16.388;2023-02-28T06:36:01;1.50;99.90
19330;DHT22;9799;48.214;16.388;2023-02-28T06:39:22;1.60;99.90
19330;DHT22;9799;48.214;16.388;2023-02-28T06:42:43;1.80;99.90
19330;DHT22;9799;48.214;16.388;2023-02-28T06:46:07;1.40;99.90
19330;DHT22;9799;48.214;16.388;2023-02-28T06:49:30;1.40;99.90
19330;DHT22;9799;48.214;16.388;2023-02-28T06:52:51;1.50;99.90
19330;DHT22;9799;48.214;16.388;2023-02-28T06:56:15;1.70;99.90
19330;DHT22;9799;48.214;16.388;2023-02-28T06:59:36;1.70;99.90
19330;DHT22;9799;48.214;16.388;2023-02-28T07:02:57;1.60;99.90
19330;DHT22;9799;48.214;16.388;2023-02-28T07:06:21;1.50;99.90
19330;DHT22;9799;48.214;16.388;2023-02-28T07:09:43;1.70;99.90
19330;DHT22;9799;48.214;16.388;2023-02-28T07:13:04;1.70;99.90
19330;DHT22;9799;48.214;16.388;2023-02-28T07:16:26;1.60;99.90
19330;DHT22;9799;48.214;16.388;2023-02-28T07:19:47;1.40;99.90
19330;DHT22;9799;48.214;16.388;2023-02-28T07:23:10;1.50;99.90
19330;DHT22;9799;48.214;16.388;2023-02-28T07:26:31;1.40;99.90
19330;DHT22;9799;48.214;16.388;2023-02-28T07:29:53;1.50;99.90
19330;DHT22;9799;48.214;16.388;2023-02-28T07:33:15;1.80;99.90
19330;DHT22;9799;48.214;16.388;2023-02-28T07:36:36;2.00;99.90
19330;DHT22;9799;48.214;16.388;2023-02-28T07:39:59;2.10;99.90
19330;DHT22;9799;48.214;16.388;2023-02-28T07:43:20;2.30;99.90
19330;DHT22;9799;48.214;16.388;2023-02-28T07:46:42;2.30;99.90
19330;DHT22;9799;48.214;16.388;2023-02-28T07:50:03;2.30;99.90
19330;DHT22;9799;48.214;16.388;2023-02-28T07:53:25;2.60;99.90
19330;DHT22;9799;48.214;16.388;2023-02-28T07:56:48;2.50;99.90
19330;DHT22;9799;48.214;16.388;2023-02-28T08:00:11;2.80;99.90
19330;DHT22;9799;48.214;16.388;2023-02-28T08:03:33;2.50;99.90
19330;DHT22;9799;48.214;16.388;2023-02-28T08:06:55;2.20;99.90
19330;DHT22;9799;48.214;16.388;2023-02-28T08:10:16;2.50;99.90
19330;DHT22;9799;48.214;16.388;2023-02-28T08:13:39;2.70;99.90
19330;DHT22;9799;48.214;16.388;2023-02-28T08:17:02;2.90;99.90
19330;DHT22;9799;48.214;16.388;2023-02-28T08:20:23;3.10;99.90
19330;DHT22;9799;48.214;16.388;2023-02-28T08:23:46;2.90;99.90
19330;DHT22;9799;48.214;16.388;2023-02-28T08:27:07;2.80;99.90
19330;DHT22;9799;48.214;16.388;2023-02-28T08:30:30;2.70;99.90
19330;DHT22;9799;48.214;16.388;2023-02-28T08:33:51;2.70;99.90
19330;DHT22;9799;48.214;16.388;2023-02-28T08:37:13;2.80;99.90
19330;DHT22;9799;48.214;16.388;2023-02-28T08:40:34;3.00;99.90
19330;DHT22;9799;48.214;16.388;2023-02-28T08:43:55;3.20;99.90
19330;DHT22;9799;48.214;16.388;2023-02-28T08:47:18;3.00;99.90
19330;DHT22;9799;48.214;16.388;2023-02-28T08:50:39;3.50;99.90
19330;DHT22;9799;48.214;16.388;2023-02-28T08:54:01;3.60;99.90
19330;DHT22;9799;48.214;16.388;2023-02-28T08:57:22;3.70;99.90
19330;DHT22;9799;48.214;16.388;2023-02-28T09:00:45;3.60;99.90
19330;DHT22;9799;48.214;16.388;2023-02-28T09:04:08;3.60;99.90
19330;DHT22;9799;48.214;16.388;2023-02-28T09:07:30;3.70;99.90
19330;DHT22;9799;48.214;16.388;2023-02-28T09:10:51;3.80;99.90
19330;DHT22;9799;48.214;16.388;2023-02-28T09:14:12;3.80;99.90
19330;DHT22;9799;48.214;16.388;2023-02-28T09:17:34;3.90;99.90
19330;DHT22;9799;48.214;16.388;2023-02-28T09:20:56;4.10;99.90
19330;DHT22;9799;48.214;16.388;2023-02-28T09:24:18;4.20;99.90
19330;DHT22;9799;48.214;16.388;2023-02-28T09:27:40;4.40;99.90
19330;DHT22;9799;48.214;16.388;2023-02-28T09:31:01;4.20;99.90
19330;DHT22;9799;48.214;16.388;2023-02-28T09:34:24;4.30;99.90
19330;DHT22;9799;48.214;16.388;2023-02-28T09:37:47;4.30;99.90
19330;DHT22;9799;48.214;16.388;2023-02-28T09:41:14;4.50;99.90
19330;DHT22;9799;48.214;16.388;2023-02-28T09:44:38;4.50;99.90
19330;DHT22;9799;48.214;16.388;2023-02-28T09:48:04;4.40;99.90
19330;DHT22;9799;48.214;16.388;2023-02-28T09:51:44;4.20;99.90
19330;DHT22;9799;48.214;16.388;2023-02-28T09:55:20;4.30;99.90
19330;DHT22;9799;48.214;16.388;2023-02-28T09:58:48;4.30;99.90
19330;DHT22;9799;48.214;16.388;2023-02-28T10:02:35;4.30;99.90
19330;DHT22;9799;48.214;16.388;2023-02-28T10:06:04;4.30;99.90
19330;DHT22;9799;48.214;16.388;2023-02-28T10:09:30;4.30;99.90
19330;DHT22;9799;48.214;16.388;2023-02-28T10:12:56;4.30;99.90
19330;DHT22;9799;48.214;16.388;2023-02-28T10:16:24;4.30;99.90
19330;DHT22;9799;48.214;16.388;2023-02-28T10:19:54;4.60;99.90
19330;DHT22;9799;48.214;16.388;2023-02-28T10:23:20;4.60;99.90
19330;DHT22;9799;48.214;16.388;2023-02-28T10:26:44;4.40;99.90
19330;DHT22;9799;48.214;16.388;2023-02-28T10:30:10;4.30;99.90
19330;DHT22;9799;48.214;16.388;2023-02-28T10:33:34;4.60;99.90
19330;DHT22;9799;48.214;16.388;2023-02-28T10:36:56;4.70;99.90
19330;DHT22;9799;48.214;16.388;2023-02-28T10:40:30;4.80;99.90
19330;DHT22;9799;48.214;16.388;2023-02-28T10:43:52;4.90;99.90
19330;DHT22;9799;48.214;16.388;2023-02-28T10:47:17;4.80;99.90
19330;DHT22;9799;48.214;16.388;2023-02-28T10:50:43;4.80;99.90
19330;DHT22;9799;48.214;16.388;2023-02-28T10:54:05;4.90;99.90
19330;DHT22;9799;48.214;16.388;2023-02-28T10:57:35;5.00;99.90
19330;DHT22;9799;48.214;16.388;2023-02-28T11:00:58;4.90;99.90
19330;DHT22;9799;48.214;16.388;2023-02-28T11:04:34;4.90;99.90
19330;DHT22;9799;48.214;16.388;2023-02-28T11:08:04;5.00;99.90
19330;DHT22;9799;48.214;16.388;2023-02-28T11:11:28;4.80;99.90
19330;DHT22;9799;48.214;16.388;2023-02-28T11:14:53;4.90;99.90
19330;DHT22;9799;48.214;16.388;2023-02-28T11:18:22;4.90;99.90
19330;DHT22;9799;48.214;16.388;2023-02-28T11:21:51;5.10;99.90
19330;DHT22;9799;48.214;16.388;2023-02-28T11:25:20;5.30;99.90
19330;DHT22;9799;48.214;16.388;2023-02-28T11:28:43;5.20;99.90
19330;DHT22;9799;48.214;16.388;2023-02-28T11:32:16;5.30;99.90
19330;DHT22;9799;48.214;16.388;2023-02-28T11:35:39;5.20;99.90
19330;DHT22;9799;48.214;16.388;2023-02-28T11:39:10;5.40;99.90
19330;DHT22;9799;48.214;16.388;2023-02-28T11:42:42;5.40;99.90
19330;DHT22;9799;48.214;16.388;2023-02-28T11:46:16;5.70;99.90
19330;DHT22;9799;48.214;16.388;2023-02-28T11:49:47;5.80;99.90
19330;DHT22;9799;48.214;16.388;2023-02-28T11:53:20;6.20;99.90
19330;DHT22;9799;48.214;16.388;2023-02-28T11:56:46;6.30;99.90
19330;DHT22;9799;48.214;16.388;2023-02-28T12:00:17;6.50;99.90
19330;DHT22;9799;48.214;16.388;2023-02-28T12:03:45;6.30;99.90
19330;DHT22;9799;48.214;16.388;2023-02-28T12:07:14;6.60;99.90
19330;DHT22;9799;48.214;16.388;2023-02-28T12:10:48;6.50;99.90
19330;DHT22;9799;48.214;16.388;2023-02-28T12:14:31;6.00;99.90
19330;DHT22;9799;48.214;16.388;2023-02-28T12:18:17;6.40;99.90
19330;DHT22;9799;48.214;16.388;2023-02-28T12:25:50;6.60;99.90
19330;DHT22;9799;48.214;16.388;2023-02-28T12:29:19;6.50;99.90
19330;DHT22;9799;48.214;16.388;2023-02-28T12:32:47;6.90;99.90
19330;DHT22;9799;48.214;16.388;2023-02-28T12:36:11;7.10;99.70
19330;DHT22;9799;48.214;16.388;2023-02-28T12:39:40;7.10;98.50
19330;DHT22;9799;48.214;16.388;2023-02-28T12:43:05;6.90;97.00
19330;DHT22;9799;48.214;16.388;2023-02-28T12:46:32;6.80;95.90
19330;DHT22;9799;48.214;16.388;2023-02-28T12:50:00;6.80;95.50
19330;DHT22;9799;48.214;16.388;2023-02-28T12:53:27;6.80;96.40
19330;DHT22;9799;48.214;16.388;2023-02-28T12:56:58;7.00;95.40
19330;DHT22;9799;48.214;16.388;2023-02-28T13:00:28;6.70;95.20
19330;DHT22;9799;48.214;16.388;2023-02-28T13:04:19;6.80;95.70
19330;DHT22;9799;48.214;16.388;2023-02-28T13:08:12;6.80;95.30
19330;DHT22;9799;48.214;16.388;2023-02-28T13:11:43;6.60;94.50
19330;DHT22;9799;48.214;16.388;2023-02-28T13:15:08;6.90;94.90
19330;DHT22;9799;48.214;16.388;2023-02-28T13:18:36;7.10;94.10
19330;DHT22;9799;48.214;16.388;2023-02-28T13:21:59;7.00;92.50
19330;DHT22;9799;48.214;16.388;2023-02-28T13:29:28;7.10;92.70
19330;DHT22;9799;48.214;16.388;2023-02-28T13:33:22;6.90;92.40
19330;DHT22;9799;48.214;16.388;2023-02-28T13:36:44;7.10;92.40
19330;DHT22;9799;48.214;16.388;2023-02-28T13:40:26;6.80;92.50
19330;DHT22;9799;48.214;16.388;2023-02-28T13:44:00;6.70;92.50
19330;DHT22;9799;48.214;16.388;2023-02-28T13:47:30;6.70;92.70
19330;DHT22;9799;48.214;16.388;2023-02-28T13:50:51;6.70;92.40
19330;DHT22;9799;48.214;16.388;2023-02-28T13:54:32;6.80;92.20
19330;DHT22;9799;48.214;16.388;2023-02-28T13:58:12;6.80;91.90
19330;DHT22;9799;48.214;16.388;2023-02-28T14:01:55;6.90;92.20
19330;DHT22;9799;48.214;16.388;2023-02-28T14:05:20;6.90;92.30
19330;DHT22;9799;48.214;16.388;2023-02-28T14:08:54;7.00;92.30
19330;DHT22;9799;48.214;16.388;2023-02-28T14:12:51;7.10;91.90
19330;DHT22;9799;48.214;16.388;2023-02-28T14:16:15;7.10;92.30
19330;DHT22;9799;48.214;16.388;2023-02-28T14:19:38;7.00;93.20
19330;DHT22;9799;48.214;16.388;2023-02-28T14:23:08;7.10;92.80
19330;DHT22;9799;48.214;16.388;2023-02-28T14:30:40;7.10;93.20
19330;DHT22;9799;48.214;16.388;2023-02-28T14:34:17;6.70;93.50
19330;DHT22;9799;48.214;16.388;2023-02-28T14:37:42;6.60;94.00
19330;DHT22;9799;48.214;16.388;2023-02-28T14:41:14;6.50;94.40
19330;DHT22;9799;48.214;16.388;2023-02-28T14:44:36;6.50;94.20
19330;DHT22;9799;48.214;16.388;2023-02-28T14:47:59;6.40;94.60
19330;DHT22;9799;48.214;16.388;2023-02-28T14:51:23;6.50;94.30
19330;DHT22;9799;48.214;16.388;2023-02-28T14:54:45;6.60;94.90
19330;DHT22;9799;48.214;16.388;2023-02-28T14:58:21;6.70;95.00
19330;DHT22;9799;48.214;16.388;2023-02-28T15:01:43;6.70;95.40
19330;DHT22;9799;48.214;16.388;2023-02-28T15:05:20;6.60;95.00
19330;DHT22;9799;48.214;16.388;2023-02-28T15:08:42;6.40;95.30
19330;DHT22;9799;48.214;16.388;2023-02-28T15:12:04;6.50;95.80
19330;DHT22;9799;48.214;16.388;2023-02-28T15:15:35;6.60;95.30
19330;DHT22;9799;48.214;16.388;2023-02-28T15:19:02;6.50;95.60
19330;DHT22;9799;48.214;16.388;2023-02-28T15:22:29;6.40;95.70
19330;DHT22;9799;48.214;16.388;2023-02-28T15:25:53;6.30;96.10
19330;DHT22;9799;48.214;16.388;2023-02-28T15:29:19;6.30;96.30
19330;DHT22;9799;48.214;16.388;2023-02-28T15:32:42;6.50;96.30
19330;DHT22;9799;48.214;16.388;2023-02-28T15:36:13;6.60;96.10
19330;DHT22;9799;48.214;16.388;2023-02-28T15:39:42;6.60;95.90
19330;DHT22;9799;48.214;16.388;2023-02-28T15:43:07;6.50;95.80
19330;DHT22;9799;48.214;16.388;2023-02-28T15:46:29;6.40;95.40
19330;DHT22;9799;48.214;16.388;2023-02-28T15:49:53;6.40;95.60
19330;DHT22;9799;48.214;16.388;2023-02-28T15:53:17;6.30;95.10
19330;DHT22;9799;48.214;16.388;2023-02-28T15:56:44;6.30;95.30
19330;DHT22;9799;48.214;16.388;2023-02-28T16:00:11;6.30;95.00
19330;DHT22;9799;48.214;16.388;2023-02-28T16:03:39;6.50;95.00
19330;DHT22;9799;48.214;16.388;2023-02-28T16:07:03;6.40;95.70
19330;DHT22;9799;48.214;16.388;2023-02-28T16:10:27;6.30;96.00
19330;DHT22;9799;48.214;16.388;2023-02-28T16:13:50;6.20;96.20
19330;DHT22;9799;48.214;16.388;2023-02-28T16:17:16;6.20;96.30
19330;DHT22;9799;48.214;16.388;2023-02-28T16:20:40;6.00;96.70
19330;DHT22;9799;48.214;16.388;2023-02-28T16:24:06;5.90;97.10
19330;DHT22;9799;48.214;16.388;2023-02-28T16:27:31;5.90;97.20
19330;DHT22;9799;48.214;16.388;2023-02-28T16:30:53;6.00;97.50
19330;DHT22;9799;48.214;16.388;2023-02-28T16:34:15;6.10;97.30
19330;DHT22;9799;48.214;16.388;2023-02-28T16:37:36;6.20;97.10
19330;DHT22;9799;48.214;16.388;2023-02-28T16:41:00;6.10;97.10
19330;DHT22;9799;48.214;16.388;2023-02-28T16:44:27;5.90;97.30
19330;DHT22;9799;48.214;16.388;2023-02-28T16:47:50;5.80;97.60
19330;DHT22;9799;48.214;16.388;2023-02-28T16:51:12;5.90;97.60
19330;DHT22;9799;48.214;16.388;2023-02-28T16:54:34;6.00;97.70
19330;DHT22;9799;48.214;16.388;2023-02-28T16:57:59;6.00;97.80
19330;DHT22;9799;48.214;16.388;2023-02-28T17:01:20;6.10;97.70
19330;DHT22;9799;48.214;16.388;2023-02-28T17:04:42;6.10;97.80
19330;DHT22;9799;48.214;16.388;2023-02-28T17:08:03;6.10;97.70
19330;DHT22;9799;48.214;16.388;2023-02-28T17:11:25;6.10;97.70
19330;DHT22;9799;48.214;16.388;2023-02-28T17:14:48;6.00;97.70
19330;DHT22;9799;48.214;16.388;2023-02-28T17:18:15;6.10;97.90
19330;DHT22;9799;48.214;16.388;2023-02-28T17:21:39;6.10;97.50
19330;DHT22;9799;48.214;16.388;2023-02-28T17:25:01;6.10;97.50
19330;DHT22;9799;48.214;16.388;2023-02-28T17:28:24;6.10;97.30
19330;DHT22;9799;48.214;16.388;2023-02-28T17:31:48;5.90;97.60
19330;DHT22;9799;48.214;16.388;2023-02-28T17:35:10;5.80;97.90
19330;DHT22;9799;48.214;16.388;2023-02-28T17:38:32;5.80;98.30
19330;DHT22;9799;48.214;16.388;2023-02-28T17:41:55;5.70;98.40
19330;DHT22;9799;48.214;16.388;2023-02-28T17:45:18;5.70;98.80
19330;DHT22;9799;48.214;16.388;2023-02-28T17:48:42;5.70;98.80
19330;DHT22;9799;48.214;16.388;2023-02-28T17:52:04;5.80;98.60
19330;DHT22;9799;48.214;16.388;2023-02-28T17:55:25;5.70;98.80
19330;DHT22;9799;48.214;16.388;2023-02-28T17:58:52;5.70;99.00
19330;DHT22;9799;48.214;16.388;2023-02-28T18:02:13;5.60;99.20
19330;DHT22;9799;48.214;16.388;2023-02-28T18:05:39;5.60;99.10
19330;DHT22;9799;48.214;16.388;2023-02-28T18:09:02;5.60;98.50
19330;DHT22;9799;48.214;16.388;2023-02-28T18:12:24;5.50;98.10
19330;DHT22;9799;48.214;16.388;2023-02-28T18:15:45;5.40;98.10
19330;DHT22;9799;48.214;16.388;2023-02-28T18:19:07;5.60;97.90
19330;DHT22;9799;48.214;16.388;2023-02-28T18:22:35;5.40;98.30
19330;DHT22;9799;48.214;16.388;2023-02-28T18:25:57;5.40;98.00
19330;DHT22;9799;48.214;16.388;2023-02-28T18:29:21;5.30;98.00
19330;DHT22;9799;48.214;16.388;2023-02-28T18:32:43;5.20;98.10
19330;DHT22;9799;48.214;16.388;2023-02-28T18:36:06;5.30;97.90
19330;DHT22;9799;48.214;16.388;2023-02-28T18:39:29;5.30;98.20
19330;DHT22;9799;48.214;16.388;2023-02-28T18:42:52;5.10;98.40
19330;DHT22;9799;48.214;16.388;2023-02-28T18:46:16;5.10;98.40
19330;DHT22;9799;48.214;16.388;2023-02-28T18:49:38;5.10;98.70
19330;DHT22;9799;48.214;16.388;2023-02-28T18:53:01;5.20;99.00
19330;DHT22;9799;48.214;16.388;2023-02-28T18:56:25;5.30;99.10
19330;DHT22;9799;48.214;16.388;2023-02-28T18:59:47;5.50;98.40
19330;DHT22;9799;48.214;16.388;2023-02-28T19:03:10;5.50;98.10
19330;DHT22;9799;48.214;16.388;2023-02-28T19:06:33;5.50;97.80
19330;DHT22;9799;48.214;16.388;2023-02-28T19:09:56;5.50;97.80
19330;DHT22;9799;48.214;16.388;2023-02-28T19:13:20;5.40;97.60
19330;DHT22;9799;48.214;16.388;2023-02-28T19:16:43;5.30;97.70
19330;DHT22;9799;48.214;16.388;2023-02-28T19:20:08;5.30;97.80
19330;DHT22;9799;48.214;16.388;2023-02-28T19:23:31;5.20;98.10
19330;DHT22;9799;48.214;16.388;2023-02-28T19:26:53;5.20;98.30
19330;DHT22;9799;48.214;16.388;2023-02-28T19:30:17;5.20;98.30
19330;DHT22;9799;48.214;16.388;2023-02-28T19:33:39;5.20;98.30
19330;DHT22;9799;48.214;16.388;2023-02-28T19:37:01;5.20;99.00
19330;DHT22;9799;48.214;16.388;2023-02-28T19:40:23;5.10;98.90
19330;DHT22;9799;48.214;16.388;2023-02-28T19:43:45;4.80;99.30
19330;DHT22;9799;48.214;16.388;2023-02-28T19:47:09;5.00;99.00
19330;DHT22;9799;48.214;16.388;2023-02-28T19:50:31;4.80;99.00
19330;DHT22;9799;48.214;16.388;2023-02-28T19:53:54;4.80;99.60
19330;DHT22;9799;48.214;16.388;2023-02-28T19:57:16;4.90;99.30
19330;DHT22;9799;48.214;16.388;2023-02-28T20:00:40;4.70;99.90
19330;DHT22;9799;48.214;16.388;2023-02-28T20:04:04;4.80;99.90
19330;DHT22;9799;48.214;16.388;2023-02-28T20:07:30;4.90;99.90
19330;DHT22;9799;48.214;16.388;2023-02-28T20:10:52;4.80;99.90
19330;DHT22;9799;48.214;16.388;2023-02-28T20:14:14;4.80;99.90
19330;DHT22;9799;48.214;16.388;2023-02-28T20:17:38;4.80;99.90
19330;DHT22;9799;48.214;16.388;2023-02-28T20:21:03;4.90;99.90
19330;DHT22;9799;48.214;16.388;2023-02-28T20:24:25;4.90;99.90
19330;DHT22;9799;48.214;16.388;2023-02-28T20:27:48;4.90;99.90
19330;DHT22;9799;48.214;16.388;2023-02-28T20:31:11;4.80;99.90
19330;DHT22;9799;48.214;16.388;2023-02-28T20:34:34;4.70;99.90
19330;DHT22;9799;48.214;16.388;2023-02-28T20:37:57;4.70;99.90
19330;DHT22;9799;48.214;16.388;2023-02-28T20:41:20;4.70;99.90
19330;DHT22;9799;48.214;16.388;2023-02-28T20:44:43;4.70;99.90
19330;DHT22;9799;48.214;16.388;2023-02-28T20:48:05;4.70;99.90
19330;DHT22;9799;48.214;16.388;2023-02-28T20:51:27;4.70;99.90
19330;DHT22;9799;48.214;16.388;2023-02-28T20:54:51;4.70;99.70
19330;DHT22;9799;48.214;16.388;2023-02-28T20:58:13;4.60;99.90
19330;DHT22;9799;48.214;16.388;2023-02-28T21:01:36;4.60;99.90
19330;DHT22;9799;48.214;16.388;2023-02-28T21:04:57;4.60;99.90
19330;DHT22;9799;48.214;16.388;2023-02-28T21:08:21;4.40;99.90
19330;DHT22;9799;48.214;16.388;2023-02-28T21:11:45;4.40;99.90
19330;DHT22;9799;48.214;16.388;2023-02-28T21:15:09;4.30;99.90
19330;DHT22;9799;48.214;16.388;2023-02-28T21:18:32;4.50;99.90
19330;DHT22;9799;48.214;16.388;2023-02-28T21:21:54;4.50;99.90
19330;DHT22;9799;48.214;16.388;2023-02-28T21:25:15;4.50;99.90
19330;DHT22;9799;48.214;16.388;2023-02-28T21:28:38;4.50;99.90
19330;DHT22;9799;48.214;16.388;2023-02-28T21:32:02;4.40;99.90
19330;DHT22;9799;48.214;16.388;2023-02-28T21:35:26;4.30;99.90
19330;DHT22;9799;48.214;16.388;2023-02-28T21:38:48;4.30;99.90
19330;DHT22;9799;48.214;16.388;2023-02-28T21:42:10;4.30;99.90
19330;DHT22;9799;48.214;16.388;2023-02-28T21:45:34;4.20;99.90
19330;DHT22;9799;48.214;16.388;2023-02-28T21:48:56;4.30;99.90
19330;DHT22;9799;48.214;16.388;2023-02-28T21:52:17;4.30;99.90
19330;DHT22;9799;48.214;16.388;2023-02-28T21:55:40;4.30;99.90
19330;DHT22;9799;48.214;16.388;2023-02-28T21:59:02;4.30;99.90
19330;DHT22;9799;48.214;16.388;2023-02-28T22:02:27;4.20;99.90
19330;DHT22;9799;48.214;16.388;2023-02-28T22:05:48;4.20;99.90
19330;DHT22;9799;48.214;16.388;2023-02-28T22:09:09;4.20;99.90
19330;DHT22;9799;48.214;16.388;2023-02-28T22:12:30;4.10;99.90